Time;durP1;ratioP1;P1;durP2;ratioP2;P2;SDS_P1;SDS_P2;PMS_P1;PMS_P2;Temp;Humidity;BMP_temperature;BMP_pressure;BME280_temperature;BME280_humidity;BME280_pressure;Samples;Min_cycle;Max_cycle;Signal;HPM_P1;HPM_P2
2024/03/28 00:00:59;;;;;;;651.08;138.88;;;;;;;;;;5027072;28;20061;-58
2024/03/28 00:03:27;;;;;;;651.70;130.90;;;;;;;;;;5034094;28;20394;-60
2024/03/28 00:05:56;;;;;;;660.92;136.43;;;;;;;;;;5046039;28;20116;-59
2024/03/28 00:08:22;;;;;;;657.20;138.82;;;;;;;;;;5045849;28;20571;-59
2024/03/28 00:10:48;;;;;;;658.38;139.90;;;;;;;;;;5044936;28;20060;-60
2024/03/28 00:13:13;;;;;;;669.53;142.43;;;;;;;;;;5046854;28;20112;-59
2024/03/28 00:15:38;;;;;;;657.38;144.00;;;;;;;;;;5044498;28;20029;-60
2024/03/28 00:18:05;;;;;;;657.75;142.95;;;;;;;;;;5046851;28;20040;-57
2024/03/28 00:20:30;;;;;;;666.83;138.50;;;;;;;;;;5044212;28;20052;-59
2024/03/28 00:22:55;;;;;;;649.10;140.82;;;;;;;;;;5047033;28;20021;-57
2024/03/28 00:25:21;;;;;;;660.30;140.13;;;;;;;;;;5043255;28;20025;-59
2024/03/28 00:27:46;;;;;;;652.50;141.10;;;;;;;;;;5046240;28;20021;-58
2024/03/28 00:30:12;;;;;;;644.90;140.27;;;;;;;;;;5042793;28;20335;-59
2024/03/28 00:32:37;;;;;;;652.30;136.85;;;;;;;;;;5046386;28;20355;-59
2024/03/28 00:35:02;;;;;;;652.15;141.57;;;;;;;;;;5034708;28;20048;-57
2024/03/28 00:37:28;;;;;;;659.67;140.68;;;;;;;;;;5028192;28;20478;-59
2024/03/28 00:39:53;;;;;;;650.42;140.40;;;;;;;;;;5034738;28;20473;-59
2024/03/28 00:42:18;;;;;;;643.88;140.65;;;;;;;;;;5046215;28;20029;-59
2024/03/28 00:44:44;;;;;;;654.78;138.25;;;;;;;;;;5043933;28;20029;-59
2024/03/28 00:47:09;;;;;;;655.05;137.68;;;;;;;;;;5046092;28;20032;-59
2024/03/28 00:49:34;;;;;;;652.88;133.85;;;;;;;;;;5042149;28;20474;-59
2024/03/28 00:51:59;;;;;;;662.80;140.27;;;;;;;;;;5040818;28;20061;-59
2024/03/28 00:54:25;;;;;;;648.65;134.38;;;;;;;;;;5032244;28;20025;-59
2024/03/28 00:56:50;;;;;;;660.78;145.80;;;;;;;;;;5043947;28;20021;-59
2024/03/28 00:59:15;;;;;;;652.42;144.35;;;;;;;;;;5038625;28;20049;-59
2024/03/28 01:01:40;;;;;;;658.80;143.63;;;;;;;;;;5040749;28;20063;-59
2024/03/28 01:04:06;;;;;;;653.25;142.50;;;;;;;;;;5029861;28;20082;-59
2024/03/28 01:06:31;;;;;;;649.15;138.48;;;;;;;;;;5045839;28;20029;-60
2024/03/28 01:08:57;;;;;;;650.08;134.40;;;;;;;;;;5043326;28;20017;-59
2024/03/28 01:11:22;;;;;;;658.38;137.85;;;;;;;;;;5045885;28;20029;-59
2024/03/28 01:13:47;;;;;;;650.95;140.20;;;;;;;;;;5040753;28;20044;-60
2024/03/28 01:16:12;;;;;;;645.83;138.63;;;;;;;;;;5039825;28;20029;-59
2024/03/28 01:18:38;;;;;;;644.15;135.52;;;;;;;;;;5025542;28;20437;-58
2024/03/28 01:21:06;;;;;;;656.80;142.38;;;;;;;;;;5045386;28;20084;-57
2024/03/28 01:23:31;;;;;;;656.87;145.80;;;;;;;;;;5044075;28;20020;-59
2024/03/28 01:26:01;;;;;;;654.33;141.82;;;;;;;;;;5028655;28;20091;-58
2024/03/28 01:28:26;;;;;;;642.80;139.55;;;;;;;;;;5025222;28;20013;-57
2024/03/28 01:30:55;;;;;;;658.72;144.57;;;;;;;;;;5026073;28;20091;-60
2024/03/28 01:33:20;;;;;;;649.50;141.40;;;;;;;;;;5025539;28;20068;-57
2024/03/28 01:35:45;;;;;;;642.75;137.68;;;;;;;;;;5026655;28;20045;-58
2024/03/28 01:38:11;;;;;;;646.85;139.77;;;;;;;;;;5045136;28;20291;-58
2024/03/28 01:40:36;;;;;;;656.03;141.40;;;;;;;;;;5027084;28;20037;-58
2024/03/28 01:43:07;;;;;;;648.47;139.40;;;;;;;;;;5039832;28;20104;-59
2024/03/28 01:45:33;;;;;;;644.33;139.85;;;;;;;;;;5040337;28;20055;-59
2024/03/28 01:47:58;;;;;;;654.35;146.68;;;;;;;;;;5044970;28;20021;-58
2024/03/28 01:50:24;;;;;;;647.92;141.77;;;;;;;;;;5028370;28;20483;-59
2024/03/28 01:52:49;;;;;;;650.90;140.43;;;;;;;;;;5025066;28;20017;-59
2024/03/28 01:55:15;;;;;;;647.67;136.73;;;;;;;;;;5037753;28;20104;-59
2024/03/28 01:57:40;;;;;;;645.33;132.50;;;;;;;;;;5044100;28;20021;-60
2024/03/28 02:00:07;;;;;;;646.30;137.00;;;;;;;;;;5042612;28;20436;-57
2024/03/28 02:02:33;;;;;;;648.72;134.32;;;;;;;;;;5044911;28;20100;-59
2024/03/28 02:04:59;;;;;;;645.15;142.60;;;;;;;;;;5042735;28;20124;-60
2024/03/28 02:07:24;;;;;;;648.80;133.45;;;;;;;;;;5043174;28;20620;-59
2024/03/28 02:09:49;;;;;;;646.50;134.70;;;;;;;;;;5032739;28;20018;-60
2024/03/28 02:12:15;;;;;;;659.33;135.75;;;;;;;;;;5025180;28;20084;-59
2024/03/28 02:14:40;;;;;;;648.45;136.45;;;;;;;;;;5024803;28;20041;-58
2024/03/28 02:17:05;;;;;;;653.97;135.23;;;;;;;;;;5025350;28;20036;-58
2024/03/28 02:19:31;;;;;;;640.25;135.30;;;;;;;;;;5024638;28;20267;-59
2024/03/28 02:21:57;;;;;;;644.13;133.60;;;;;;;;;;5024668;28;20379;-58
2024/03/28 02:24:22;;;;;;;642.83;133.40;;;;;;;;;;5034718;28;20021;-60
2024/03/28 02:26:48;;;;;;;646.50;134.57;;;;;;;;;;5039364;28;20337;-57
2024/03/28 02:29:13;;;;;;;652.08;135.00;;;;;;;;;;5029353;28;20013;-59
2024/03/28 02:31:39;;;;;;;648.45;137.02;;;;;;;;;;5044449;28;20028;-59
2024/03/28 02:34:04;;;;;;;640.55;133.82;;;;;;;;;;5042234;28;20044;-60
2024/03/28 02:36:29;;;;;;;662.42;137.90;;;;;;;;;;5043249;28;20545;-58
2024/03/28 02:38:54;;;;;;;641.53;137.00;;;;;;;;;;5054983;28;20159;-59
2024/03/28 02:41:20;;;;;;;644.13;128.88;;;;;;;;;;5032489;28;20032;-59
2024/03/28 02:43:46;;;;;;;644.05;132.38;;;;;;;;;;5041371;28;20462;-59
2024/03/28 02:46:11;;;;;;;644.53;128.40;;;;;;;;;;5044516;28;20321;-59
2024/03/28 02:48:36;;;;;;;642.28;127.93;;;;;;;;;;5042231;28;20025;-59
2024/03/28 02:51:02;;;;;;;638.50;132.27;;;;;;;;;;5044555;28;20083;-59
2024/03/28 02:53:27;;;;;;;637.90;131.73;;;;;;;;;;5043032;28;20558;-58
2024/03/28 02:55:52;;;;;;;634.90;135.05;;;;;;;;;;5043022;28;20032;-58
2024/03/28 02:58:18;;;;;;;635.00;136.75;;;;;;;;;;5044172;28;20025;-59
2024/03/28 03:00:43;;;;;;;632.38;127.97;;;;;;;;;;5041750;28;20037;-59
2024/03/28 03:03:08;;;;;;;631.50;129.30;;;;;;;;;;5044409;28;20082;-59
2024/03/28 03:05:33;;;;;;;632.90;128.02;;;;;;;;;;5046046;28;20048;-58
2024/03/28 03:08:01;;;;;;;633.22;120.32;;;;;;;;;;5048261;28;20093;-58
2024/03/28 03:10:27;;;;;;;628.38;118.65;;;;;;;;;;5046035;28;20067;-58
2024/03/28 03:12:52;;;;;;;628.65;118.68;;;;;;;;;;5046613;28;20467;-60
2024/03/28 03:15:17;;;;;;;631.70;121.80;;;;;;;;;;5045931;28;20087;-59
2024/03/28 03:17:43;;;;;;;630.83;118.93;;;;;;;;;;5048211;28;20539;-58
2024/03/28 03:20:08;;;;;;;630.08;121.95;;;;;;;;;;5045066;28;20131;-59
2024/03/28 03:22:35;;;;;;;626.05;121.13;;;;;;;;;;5047708;28;20465;-59
2024/03/28 03:25:10;;;;;;;622.30;121.82;;;;;;;;;;5037172;28;20018;-60
2024/03/28 03:34:34;;;;;;;627.00;123.47;;;;;;;;;;5029473;28;20033;-58
2024/03/28 03:35:48;;;;;;;626.70;121.05;;;;;;;;;;5045635;28;20032;-58
2024/03/28 03:38:14;;;;;;;631.00;125.35;;;;;;;;;;5047916;28;20024;-59
2024/03/28 03:40:39;;;;;;;626.00;123.13;;;;;;;;;;5045423;28;20075;-59
2024/03/28 03:43:04;;;;;;;625.30;119.20;;;;;;;;;;5045916;28;20521;-57
2024/03/28 03:45:29;;;;;;;620.60;117.75;;;;;;;;;;5044480;28;20017;-60
2024/03/28 03:47:55;;;;;;;623.08;118.80;;;;;;;;;;5061432;28;20427;-58
2024/03/28 03:50:20;;;;;;;627.50;120.68;;;;;;;;;;5031170;28;20026;-58
2024/03/28 03:52:46;;;;;;;627.40;121.30;;;;;;;;;;5027097;28;20061;-59
2024/03/28 03:55:11;;;;;;;620.22;115.35;;;;;;;;;;5039713;28;20343;-58
2024/03/28 03:57:37;;;;;;;629.47;116.85;;;;;;;;;;5046825;28;20076;-59
2024/03/28 04:00:04;;;;;;;621.20;116.65;;;;;;;;;;5044608;28;20412;-59
2024/03/28 04:02:29;;;;;;;619.65;118.38;;;;;;;;;;5047468;28;20060;-60
2024/03/28 04:04:55;;;;;;;630.13;116.80;;;;;;;;;;5044988;28;20067;-59
2024/03/28 04:07:21;;;;;;;622.72;115.60;;;;;;;;;;5045955;28;20056;-60
2024/03/28 04:09:47;;;;;;;617.80;113.07;;;;;;;;;;5045568;28;20025;-58
2024/03/28 04:12:12;;;;;;;619.75;115.38;;;;;;;;;;5046809;28;20240;-59
2024/03/28 04:14:37;;;;;;;625.55;117.00;;;;;;;;;;5044369;28;20300;-59
2024/03/28 04:17:03;;;;;;;621.95;119.57;;;;;;;;;;5058916;28;20037;-57
2024/03/28 04:19:28;;;;;;;618.53;117.85;;;;;;;;;;5044349;28;20064;-59
2024/03/28 04:21:53;;;;;;;619.08;118.38;;;;;;;;;;5046589;28;20024;-59
2024/03/28 04:24:18;;;;;;;618.55;118.53;;;;;;;;;;5035324;28;20453;-58
2024/03/28 04:26:44;;;;;;;620.90;117.88;;;;;;;;;;5026141;28;20034;-59
2024/03/28 04:29:09;;;;;;;617.70;117.35;;;;;;;;;;5040801;28;20022;-59
2024/03/28 04:31:34;;;;;;;623.28;119.43;;;;;;;;;;5040315;28;20392;-59
2024/03/28 04:34:00;;;;;;;615.53;117.20;;;;;;;;;;5037973;28;20033;-59
2024/03/28 04:36:25;;;;;;;618.00;116.28;;;;;;;;;;5026481;28;20434;-59
2024/03/28 04:38:50;;;;;;;618.85;110.85;;;;;;;;;;5027777;28;20113;-60
2024/03/28 04:41:15;;;;;;;614.83;114.45;;;;;;;;;;5059374;28;20029;-59
2024/03/28 04:43:41;;;;;;;616.05;117.50;;;;;;;;;;5043217;28;20087;-59
2024/03/28 04:46:06;;;;;;;615.65;115.82;;;;;;;;;;5026537;28;20468;-59
2024/03/28 04:48:32;;;;;;;616.97;118.15;;;;;;;;;;5064382;28;20074;-58
2024/03/28 04:50:58;;;;;;;614.38;114.10;;;;;;;;;;5033586;28;20063;-58
2024/03/28 04:53:23;;;;;;;617.65;114.75;;;;;;;;;;5046247;28;20060;-59
2024/03/28 04:55:49;;;;;;;613.97;111.85;;;;;;;;;;5026183;28;20116;-58
2024/03/28 04:58:14;;;;;;;619.70;117.38;;;;;;;;;;5026472;28;20025;-59
2024/03/28 05:00:39;;;;;;;613.22;112.85;;;;;;;;;;5043018;28;20025;-59
2024/03/28 05:03:05;;;;;;;618.25;116.68;;;;;;;;;;5045784;28;20029;-57
2024/03/28 05:05:31;;;;;;;617.72;117.78;;;;;;;;;;5028033;28;20505;-58
2024/03/28 05:07:56;;;;;;;617.05;114.45;;;;;;;;;;5026040;28;20102;-59
2024/03/28 05:10:22;;;;;;;615.63;113.72;;;;;;;;;;5039791;28;20025;-59
2024/03/28 05:12:47;;;;;;;617.25;116.00;;;;;;;;;;5044519;28;20029;-57
2024/03/28 05:15:13;;;;;;;620.42;117.53;;;;;;;;;;5030731;28;20028;-59
2024/03/28 05:17:38;;;;;;;620.33;116.32;;;;;;;;;;5026064;28;20112;-58
2024/03/28 05:20:04;;;;;;;613.55;114.35;;;;;;;;;;5024030;28;20333;-59
2024/03/28 05:22:30;;;;;;;618.85;112.75;;;;;;;;;;5042580;28;20064;-59
2024/03/28 05:24:55;;;;;;;620.28;116.30;;;;;;;;;;5036228;28;20082;-59
2024/03/28 05:27:20;;;;;;;615.45;114.15;;;;;;;;;;5043390;28;20436;-58
2024/03/28 05:29:48;;;;;;;619.97;115.63;;;;;;;;;;5029505;28;20572;-58
2024/03/28 05:32:13;;;;;;;616.38;113.25;;;;;;;;;;5035020;28;20024;-59
2024/03/28 05:34:39;;;;;;;613.22;113.72;;;;;;;;;;5041128;28;20382;-59
2024/03/28 05:37:04;;;;;;;616.38;115.63;;;;;;;;;;5036882;28;20142;-59
2024/03/28 05:39:29;;;;;;;613.50;113.45;;;;;;;;;;5035735;28;20021;-59
2024/03/28 05:41:54;;;;;;;615.38;114.80;;;;;;;;;;5025147;28;20025;-60
2024/03/28 05:44:20;;;;;;;615.13;111.50;;;;;;;;;;5051054;28;20044;-60
2024/03/28 05:46:45;;;;;;;621.47;117.20;;;;;;;;;;5025283;28;20041;-59
2024/03/28 05:49:10;;;;;;;616.42;115.65;;;;;;;;;;5024842;28;20028;-60
2024/03/28 05:51:36;;;;;;;615.92;118.93;;;;;;;;;;5039511;28;20592;-59
2024/03/28 05:54:01;;;;;;;615.15;117.90;;;;;;;;;;5033334;28;20048;-59
2024/03/28 05:56:26;;;;;;;614.67;114.68;;;;;;;;;;5025375;28;20025;-58
2024/03/28 05:58:51;;;;;;;616.05;116.70;;;;;;;;;;5026567;28;20037;-60
2024/03/28 06:01:17;;;;;;;617.42;118.78;;;;;;;;;;5040561;28;20505;-59
2024/03/28 06:03:42;;;;;;;620.33;123.10;;;;;;;;;;5024983;28;20033;-57
2024/03/28 06:06:08;;;;;;;613.63;120.22;;;;;;;;;;5039185;28;20025;-58
2024/03/28 06:08:34;;;;;;;618.13;124.25;;;;;;;;;;5042649;28;20107;-58
2024/03/28 06:11:00;;;;;;;621.05;121.47;;;;;;;;;;5044720;28;20435;-59
2024/03/28 06:13:30;;;;;;;621.92;123.45;;;;;;;;;;5042756;28;20021;-59
2024/03/28 06:15:55;;;;;;;618.33;116.65;;;;;;;;;;5039708;28;20390;-60
2024/03/28 06:18:21;;;;;;;618.97;119.97;;;;;;;;;;5024854;28;20088;-57
2024/03/28 06:20:47;;;;;;;618.55;118.15;;;;;;;;;;5024842;28;20057;-58
2024/03/28 06:23:12;;;;;;;622.03;117.90;;;;;;;;;;5024623;28;20014;-59
2024/03/28 06:25:38;;;;;;;624.67;120.53;;;;;;;;;;5027308;28;20325;-60
2024/03/28 06:28:04;;;;;;;620.63;123.32;;;;;;;;;;5026751;28;20486;-59
2024/03/28 06:30:30;;;;;;;617.38;116.93;;;;;;;;;;5041601;28;20145;-59
2024/03/28 06:32:56;;;;;;;619.13;120.28;;;;;;;;;;5042817;28;20063;-60
2024/03/28 06:35:22;;;;;;;620.45;119.18;;;;;;;;;;5031703;28;20113;-59
2024/03/28 06:37:47;;;;;;;622.35;126.57;;;;;;;;;;5047068;28;20630;-59
2024/03/28 06:40:13;;;;;;;630.50;127.57;;;;;;;;;;5035539;28;20033;-58
2024/03/28 06:42:38;;;;;;;630.50;124.55;;;;;;;;;;5034738;28;20033;-60
2024/03/28 06:45:03;;;;;;;2.67;0.68;;;;;;;;;;5035766;28;20025;-60
2024/03/28 06:47:29;;;;;;;3.42;0.90;;;;;;;;;;5059344;28;20040;-61
2024/03/28 06:49:54;;;;;;;3.55;1.20;;;;;;;;;;5042516;28;20493;-61
2024/03/28 06:52:19;;;;;;;3.90;1.00;;;;;;;;;;5040568;28;20094;-59
2024/03/28 06:54:45;;;;;;;5.07;0.82;;;;;;;;;;5045916;28;20434;-59
2024/03/28 06:57:10;;;;;;;3.25;1.27;;;;;;;;;;5046025;28;20036;-59
2024/03/28 06:59:35;;;;;;;2.50;0.88;;;;;;;;;;5042390;28;20029;-59
2024/03/28 07:02:01;;;;;;;7.03;1.02;;;;;;;;;;5046456;28;20182;-60
2024/03/28 07:04:26;;;;;;;3.10;0.65;;;;;;;;;;5031467;28;20128;-60
2024/03/28 07:06:51;;;;;;;4.13;0.90;;;;;;;;;;5036606;28;20449;-60
2024/03/28 07:09:17;;;;;;;6.15;0.77;;;;;;;;;;5032767;28;20017;-60
2024/03/28 07:11:45;;;;;;;3.50;0.80;;;;;;;;;;5036633;28;20039;-59
2024/03/28 07:14:11;;;;;;;668.45;170.75;;;;;;;;;;5056827;28;20036;-58
2024/03/28 07:16:37;;;;;;;665.35;167.57;;;;;;;;;;5027090;28;20021;-59
2024/03/28 07:19:02;;;;;;;657.58;155.40;;;;;;;;;;5037053;28;20040;-61
2024/03/28 07:21:27;;;;;;;659.03;158.18;;;;;;;;;;5035120;28;20409;-61
2024/03/28 07:23:52;;;;;;;661.45;162.77;;;;;;;;;;5041757;28;20021;-60
2024/03/28 07:26:18;;;;;;;654.40;156.52;;;;;;;;;;5041364;28;20172;-59
2024/03/28 07:28:43;;;;;;;662.92;160.15;;;;;;;;;;5029226;28;20040;-58
2024/03/28 07:31:09;;;;;;;663.28;159.00;;;;;;;;;;5065194;28;20090;-59
2024/03/28 07:33:34;;;;;;;668.72;164.27;;;;;;;;;;5053349;28;20037;-59
2024/03/28 07:35:59;;;;;;;666.88;176.23;;;;;;;;;;5039109;28;20020;-61
2024/03/28 07:38:25;;;;;;;670.95;169.90;;;;;;;;;;5038805;28;21289;-60
2024/03/28 07:40:50;;;;;;;676.42;168.48;;;;;;;;;;5041019;28;20532;-60
2024/03/28 07:43:19;;;;;;;626.70;159.70;;;;;;;;;;5041216;28;20024;-61
2024/03/28 07:45:44;;;;;;;656.38;162.02;;;;;;;;;;5034445;28;20063;-64
2024/03/28 07:48:10;;;;;;;664.83;162.02;;;;;;;;;;5032484;28;20535;-66
2024/03/28 07:50:36;;;;;;;645.03;157.38;;;;;;;;;;5036598;28;20469;-64
2024/03/28 07:58:14;;;;;;;676.35;216.32;;;;;;;;;;5077979;27;20809;-59
2024/03/28 08:00:40;;;;;;;681.58;214.35;;;;;;;;;;5080105;28;20033;-56
2024/03/28 08:03:06;;;;;;;687.17;213.45;;;;;;;;;;5055464;28;20718;-52
2024/03/28 08:05:31;;;;;;;686.33;212.60;;;;;;;;;;5075894;28;20050;-55
2024/03/28 08:07:57;;;;;;;687.72;223.43;;;;;;;;;;5078408;28;20510;-59
2024/03/28 08:10:22;;;;;;;682.58;222.57;;;;;;;;;;5075710;28;20032;-57
2024/03/28 08:12:48;;;;;;;687.17;232.93;;;;;;;;;;5079312;28;20362;-53
2024/03/28 08:15:15;;;;;;;687.67;215.30;;;;;;;;;;5065904;28;20035;-58
2024/03/28 08:17:41;;;;;;;680.15;209.00;;;;;;;;;;5074999;28;20044;-59
2024/03/28 08:20:15;;;;;;;682.60;211.57;;;;;;;;;;5077389;28;20073;-63
2024/03/28 08:22:40;;;;;;;682.25;209.88;;;;;;;;;;5067179;28;20063;-60
2024/03/28 08:25:06;;;;;;;690.03;224.98;;;;;;;;;;5051993;28;20066;-57
2024/03/28 08:27:32;;;;;;;694.10;237.07;;;;;;;;;;5072670;28;20020;-57
2024/03/28 08:29:57;;;;;;;696.08;238.73;;;;;;;;;;5073761;28;20499;-61
2024/03/28 08:32:23;;;;;;;693.47;230.35;;;;;;;;;;5074514;28;20020;-57
2024/03/28 08:34:48;;;;;;;691.92;229.10;;;;;;;;;;5075299;28;20016;-59
2024/03/28 08:37:13;;;;;;;703.17;238.75;;;;;;;;;;5072178;28;22798;-60
2024/03/28 08:39:39;;;;;;;695.75;234.95;;;;;;;;;;5090413;28;20504;-57
2024/03/28 08:42:04;;;;;;;701.80;242.20;;;;;;;;;;5077326;28;20691;-60
2024/03/28 08:44:29;;;;;;;698.92;244.23;;;;;;;;;;5066640;28;20054;-59
2024/03/28 08:46:55;;;;;;;700.13;252.43;;;;;;;;;;5075831;28;20483;-57
2024/03/28 08:49:20;;;;;;;700.03;249.27;;;;;;;;;;5069404;28;20811;-59
2024/03/28 08:51:46;;;;;;;705.83;260.42;;;;;;;;;;5078313;28;20025;-57
2024/03/28 08:54:12;;;;;;;704.72;264.08;;;;;;;;;;5072494;28;20035;-59
2024/03/28 08:56:38;;;;;;;707.17;263.95;;;;;;;;;;5075090;28;20067;-57
2024/03/28 08:59:03;;;;;;;706.67;269.92;;;;;;;;;;5073878;28;20048;-53
2024/03/28 09:01:29;;;;;;;710.00;274.20;;;;;;;;;;5077991;28;20024;-57
2024/03/28 09:03:55;;;;;;;709.97;276.35;;;;;;;;;;5074373;28;20457;-58
2024/03/28 09:06:20;;;;;;;706.28;264.48;;;;;;;;;;5072342;28;20063;-55
2024/03/28 09:08:46;;;;;;;707.13;263.88;;;;;;;;;;5067486;28;20036;-58
2024/03/28 09:11:12;;;;;;;705.58;257.05;;;;;;;;;;5059085;28;20027;-59
2024/03/28 09:13:37;;;;;;;706.58;268.38;;;;;;;;;;5055282;28;20027;-59
2024/03/28 09:16:03;;;;;;;709.13;269.83;;;;;;;;;;5060590;28;20517;-59
2024/03/28 09:18:28;;;;;;;712.33;282.63;;;;;;;;;;5059277;28;20025;-61
2024/03/28 09:20:53;;;;;;;714.25;286.02;;;;;;;;;;5058084;28;20422;-60
2024/03/28 09:23:20;;;;;;;719.35;298.02;;;;;;;;;;5064854;28;20017;-57
2024/03/28 09:25:46;;;;;;;713.33;293.48;;;;;;;;;;5060782;28;20021;-59
2024/03/28 09:28:12;;;;;;;710.40;292.15;;;;;;;;;;5065512;28;20043;-59
2024/03/28 09:30:37;;;;;;;713.60;286.40;;;;;;;;;;5062372;28;20469;-60
2024/03/28 09:33:02;;;;;;;710.03;285.48;;;;;;;;;;5050281;28;20063;-61
2024/03/28 09:35:28;;;;;;;706.75;283.55;;;;;;;;;;5049098;28;20016;-53
2024/03/28 09:37:53;;;;;;;713.13;279.75;;;;;;;;;;5056012;28;20032;-56
2024/03/28 09:40:18;;;;;;;708.47;271.80;;;;;;;;;;5059379;28;20515;-58
2024/03/28 09:42:44;;;;;;;705.97;250.75;;;;;;;;;;5062492;28;20020;-59
2024/03/28 09:45:10;;;;;;;707.15;261.63;;;;;;;;;;5054934;28;20070;-60
2024/03/28 09:47:36;;;;;;;700.88;249.52;;;;;;;;;;5058513;28;20020;-61
2024/03/28 09:50:02;;;;;;;702.80;252.55;;;;;;;;;;5062573;28;20564;-57
2024/03/28 09:52:28;;;;;;;706.08;248.73;;;;;;;;;;5071844;28;20041;-60
2024/03/28 09:54:54;;;;;;;701.28;244.18;;;;;;;;;;5074081;28;20048;-60
2024/03/28 09:57:19;;;;;;;699.78;251.07;;;;;;;;;;5065499;28;20047;-56
2024/03/28 09:59:45;;;;;;;706.10;259.73;;;;;;;;;;5054642;28;20220;-56
2024/03/28 10:02:19;;;;;;;708.17;260.63;;;;;;;;;;5056834;28;20110;-59
2024/03/28 10:04:48;;;;;;;708.40;253.30;;;;;;;;;;5057194;28;20021;-55
2024/03/28 10:07:16;;;;;;;704.72;250.35;;;;;;;;;;5054943;28;20031;-55
2024/03/28 10:09:41;;;;;;;705.40;255.35;;;;;;;;;;5061564;28;20021;-57
2024/03/28 10:12:10;;;;;;;703.38;246.75;;;;;;;;;;5064216;28;20032;-61
2024/03/28 10:14:36;;;;;;;700.88;250.13;;;;;;;;;;5055831;28;20040;-58
2024/03/28 10:17:02;;;;;;;702.95;255.02;;;;;;;;;;5074717;28;20082;-56
2024/03/28 10:19:29;;;;;;;701.55;247.63;;;;;;;;;;5062521;28;20036;-54
2024/03/28 10:22:07;;;;;;;706.17;254.05;;;;;;;;;;5064981;28;20384;-60
2024/03/28 10:24:33;;;;;;;707.70;255.18;;;;;;;;;;5056057;28;20101;-61
2024/03/28 10:26:59;;;;;;;708.85;261.45;;;;;;;;;;5058347;28;20052;-59
2024/03/28 10:29:24;;;;;;;706.45;269.83;;;;;;;;;;5063598;28;20543;-59
2024/03/28 10:31:50;;;;;;;712.13;266.83;;;;;;;;;;5077988;28;20025;-57
2024/03/28 10:34:16;;;;;;;715.83;271.98;;;;;;;;;;5058388;28;20021;-56
2024/03/28 10:36:42;;;;;;;703.03;255.48;;;;;;;;;;5064471;28;20033;-56
2024/03/28 10:39:08;;;;;;;710.15;252.13;;;;;;;;;;5064017;28;20090;-59
2024/03/28 10:41:34;;;;;;;703.92;253.98;;;;;;;;;;5064032;28;20028;-58
2024/03/28 10:44:00;;;;;;;699.63;227.23;;;;;;;;;;5062457;28;20047;-60
2024/03/28 10:46:26;;;;;;;694.90;222.13;;;;;;;;;;5063142;28;20025;-61
2024/03/28 10:48:53;;;;;;;697.15;225.88;;;;;;;;;;5060585;28;20028;-57
2024/03/28 10:51:25;;;;;;;690.60;214.85;;;;;;;;;;5050959;28;20742;-60
2024/03/28 10:54:09;;;;;;;695.65;216.98;;;;;;;;;;5062950;28;20021;-53
2024/03/28 10:56:36;;;;;;;684.65;196.88;;;;;;;;;;5063921;28;20125;-53
2024/03/28 10:59:02;;;;;;;686.42;198.05;;;;;;;;;;5059724;28;20520;-59
2024/03/28 11:01:31;;;;;;;683.00;188.15;;;;;;;;;;5061673;28;20046;-60
2024/03/28 11:03:58;;;;;;;688.50;199.25;;;;;;;;;;5061537;28;20036;-60
2024/03/28 11:06:24;;;;;;;684.55;194.50;;;;;;;;;;5059001;28;20535;-61
2024/03/28 11:08:49;;;;;;;683.85;191.50;;;;;;;;;;5062549;28;20056;-57
2024/03/28 11:11:14;;;;;;;683.15;197.68;;;;;;;;;;5063611;28;20055;-60
2024/03/28 11:13:40;;;;;;;691.45;203.88;;;;;;;;;;5060433;28;20438;-57
2024/03/28 11:16:06;;;;;;;691.97;209.30;;;;;;;;;;5048478;28;20111;-59
2024/03/28 11:18:35;;;;;;;690.35;208.85;;;;;;;;;;5052876;28;20032;-58
2024/03/28 11:21:00;;;;;;;683.60;203.68;;;;;;;;;;5064249;28;20028;-59
2024/03/28 11:23:26;;;;;;;687.83;198.32;;;;;;;;;;5065239;28;20036;-57
2024/03/28 11:26:07;;;;;;;690.85;210.40;;;;;;;;;;5059048;28;20036;-57
2024/03/28 11:28:33;;;;;;;686.75;197.77;;;;;;;;;;5061466;28;20483;-55
2024/03/28 11:30:59;;;;;;;685.67;206.00;;;;;;;;;;5058676;28;20025;-56
2024/03/28 11:33:34;;;;;;;695.13;204.52;;;;;;;;;;5057494;28;20034;-56
2024/03/28 11:36:04;;;;;;;696.08;206.38;;;;;;;;;;5061103;28;20024;-63
2024/03/28 11:38:29;;;;;;;690.22;203.00;;;;;;;;;;5056314;28;20095;-61
2024/03/28 11:40:55;;;;;;;686.95;210.93;;;;;;;;;;5058456;28;20052;-58
2024/03/28 11:43:21;;;;;;;687.20;203.00;;;;;;;;;;5049731;28;20057;-57
2024/03/28 11:46:04;;;;;;;694.63;216.73;;;;;;;;;;5054403;28;20062;-61
2024/03/28 11:48:33;;;;;;;701.25;223.48;;;;;;;;;;5060151;28;20389;-53
2024/03/28 11:51:00;;;;;;;695.70;225.50;;;;;;;;;;5063731;28;20025;-54
2024/03/28 11:53:26;;;;;;;697.80;230.15;;;;;;;;;;5060937;28;20040;-55
2024/03/28 11:55:51;;;;;;;699.67;235.15;;;;;;;;;;5049122;28;20017;-60
2024/03/28 11:58:17;;;;;;;695.38;228.85;;;;;;;;;;5058416;28;20496;-55
2024/03/28 12:00:43;;;;;;;695.85;227.93;;;;;;;;;;5058480;28;20604;-60
2024/03/28 12:03:09;;;;;;;692.47;222.07;;;;;;;;;;5059554;28;20017;-55
2024/03/28 12:05:34;;;;;;;695.08;225.80;;;;;;;;;;5059981;28;20036;-59
2024/03/28 12:08:00;;;;;;;693.83;225.27;;;;;;;;;;5054798;28;20441;-54
2024/03/28 12:10:25;;;;;;;693.95;224.52;;;;;;;;;;5059306;28;20034;-58
2024/03/28 12:12:51;;;;;;;697.97;229.48;;;;;;;;;;5056584;28;20023;-59
2024/03/28 12:15:16;;;;;;;694.10;227.65;;;;;;;;;;5054518;28;20426;-60
2024/03/28 12:17:42;;;;;;;698.60;231.25;;;;;;;;;;5055728;28;20028;-60
2024/03/28 12:20:08;;;;;;;694.00;231.20;;;;;;;;;;5054794;28;20032;-57
2024/03/28 12:22:34;;;;;;;701.13;230.55;;;;;;;;;;5056409;28;20051;-56
2024/03/28 12:24:59;;;;;;;702.33;238.68;;;;;;;;;;5054576;28;20116;-62
2024/03/28 12:27:27;;;;;;;696.17;224.00;;;;;;;;;;5061298;28;20047;-56
2024/03/28 12:29:52;;;;;;;701.63;237.20;;;;;;;;;;5056350;28;20021;-59
2024/03/28 12:32:19;;;;;;;693.28;222.05;;;;;;;;;;5053821;28;20032;-61
2024/03/28 12:34:50;;;;;;;694.63;225.32;;;;;;;;;;5058348;28;20024;-60
2024/03/28 12:37:16;;;;;;;690.83;220.32;;;;;;;;;;5039857;28;20138;-58
2024/03/28 12:39:41;;;;;;;695.63;223.25;;;;;;;;;;5056205;28;20546;-60
2024/03/28 12:42:06;;;;;;;697.63;226.88;;;;;;;;;;5061655;28;20439;-62
2024/03/28 12:44:32;;;;;;;691.20;210.65;;;;;;;;;;5064980;28;20485;-57
2024/03/28 12:46:57;;;;;;;685.35;208.45;;;;;;;;;;5063595;28;20110;-60
2024/03/28 12:49:22;;;;;;;687.28;217.52;;;;;;;;;;5059301;28;20124;-60
2024/03/28 12:51:48;;;;;;;689.83;223.55;;;;;;;;;;5055504;28;20024;-56
2024/03/28 12:54:13;;;;;;;690.35;213.55;;;;;;;;;;5062404;28;20431;-58
2024/03/28 12:56:38;;;;;;;694.38;217.02;;;;;;;;;;5062479;28;21505;-61
2024/03/28 12:59:03;;;;;;;693.58;217.02;;;;;;;;;;5063708;28;20131;-57
2024/03/28 13:01:29;;;;;;;691.10;220.02;;;;;;;;;;5058012;28;20309;-58
2024/03/28 13:03:54;;;;;;;695.30;222.15;;;;;;;;;;5055035;28;20024;-61
2024/03/28 13:06:19;;;;;;;692.90;219.05;;;;;;;;;;5064167;28;20483;-58
2024/03/28 13:08:45;;;;;;;692.55;210.30;;;;;;;;;;5030701;28;20285;-54
2024/03/28 13:11:10;;;;;;;691.92;222.20;;;;;;;;;;5064245;28;20032;-59
2024/03/28 13:13:37;;;;;;;693.00;220.52;;;;;;;;;;5057958;28;20546;-61
2024/03/28 13:16:03;;;;;;;690.20;211.40;;;;;;;;;;5060931;28;20039;-58
2024/03/28 13:18:29;;;;;;;696.92;228.88;;;;;;;;;;5055135;28;20103;-56
2024/03/28 13:20:54;;;;;;;694.90;233.57;;;;;;;;;;5069434;28;20503;-59
2024/03/28 13:23:19;;;;;;;700.85;240.68;;;;;;;;;;5063404;28;20024;-60
2024/03/28 13:25:44;;;;;;;698.08;238.07;;;;;;;;;;5049350;28;20021;-61
2024/03/28 13:28:10;;;;;;;708.88;247.48;;;;;;;;;;5051941;28;20692;-58
2024/03/28 13:30:35;;;;;;;704.58;244.88;;;;;;;;;;5060375;28;20021;-56
2024/03/28 13:33:00;;;;;;;706.20;259.92;;;;;;;;;;5063390;28;20024;-60
2024/03/28 13:35:25;;;;;;;701.33;256.20;;;;;;;;;;5058764;28;20060;-54
2024/03/28 13:37:51;;;;;;;710.35;255.55;;;;;;;;;;5068756;28;20058;-60
2024/03/28 13:40:16;;;;;;;705.28;257.15;;;;;;;;;;5055705;28;20055;-62
2024/03/28 13:42:42;;;;;;;700.00;254.55;;;;;;;;;;5056489;28;20028;-63
2024/03/28 13:45:08;;;;;;;705.25;244.45;;;;;;;;;;5052563;28;20020;-60
2024/03/28 13:47:33;;;;;;;702.65;245.73;;;;;;;;;;5064764;28;20488;-61
2024/03/28 13:49:58;;;;;;;696.90;240.18;;;;;;;;;;5062529;28;20028;-62
2024/03/28 13:52:24;;;;;;;696.15;235.93;;;;;;;;;;5057938;28;20025;-58
2024/03/28 13:54:49;;;;;;;703.30;247.13;;;;;;;;;;5051420;28;20028;-61
2024/03/28 13:57:14;;;;;;;699.30;242.73;;;;;;;;;;5052813;28;20608;-61